<?xml version="1.0" encoding="UTF-8" standalone="no" ?>
<gpx xmlns="http://www.topografix.com/GPX/1/1" xmlns:xsi="http://www.w3.org/2001/XMLSchema-instance" xsi:schemaLocation="http://www.topografix.com/GPX/1/1 http://www.topografix.com/GPX/1/1/gpx.xsd" version="1.1" creator="VisuGPX - https://www.visugpx.com">
  <metadata>
    <name>Prayssas 10.3 km</name>
  </metadata>
  <trk>
    <name><![CDATA[2025 07 10 Prayssas Pierre]]></name>
    <extensions>
      <line xmlns="http://www.topografix.com/GPX/gpx_style/0/2">
        <color>0000FF</color>
        <width>4</width>
      </line>
    </extensions>
    <trkseg>
      <trkpt lat="44.28845" lon="0.51083">
        <ele>169.8</ele>
        <time>2025-07-10T06:52:27.728Z</time>
      </trkpt>
      <trkpt lat="44.28837" lon="0.51074">
        <ele>169.5</ele>
        <time>2025-07-10T06:52:35.728Z</time>
      </trkpt>
      <trkpt lat="44.28836" lon="0.51064">
        <ele>169.8</ele>
        <time>2025-07-10T06:52:51.728Z</time>
      </trkpt>
      <trkpt lat="44.28827" lon="0.51056">
        <ele>169.3</ele>
        <time>2025-07-10T06:52:59.728Z</time>
      </trkpt>
      <trkpt lat="44.28814" lon="0.51037">
        <ele>168.8</ele>
        <time>2025-07-10T06:53:15.728Z</time>
      </trkpt>
      <trkpt lat="44.28807" lon="0.5101">
        <ele>169.7</ele>
        <time>2025-07-10T06:53:31.728Z</time>
      </trkpt>
      <trkpt lat="44.28805" lon="0.50987">
        <ele>170.4</ele>
        <time>2025-07-10T06:53:47.728Z</time>
      </trkpt>
      <trkpt lat="44.28794" lon="0.50977">
        <ele>170.4</ele>
        <time>2025-07-10T06:54:03.728Z</time>
      </trkpt>
      <trkpt lat="44.28786" lon="0.50956">
        <ele>171.3</ele>
        <time>2025-07-10T06:54:19.728Z</time>
      </trkpt>
      <trkpt lat="44.2878" lon="0.50946">
        <ele>171.9</ele>
        <time>2025-07-10T06:54:27.728Z</time>
      </trkpt>
      <trkpt lat="44.28776" lon="0.50925">
        <ele>172.6</ele>
        <time>2025-07-10T06:54:43.728Z</time>
      </trkpt>
      <trkpt lat="44.2877" lon="0.5092">
        <ele>172.6</ele>
        <time>2025-07-10T06:54:51.728Z</time>
      </trkpt>
      <trkpt lat="44.28762" lon="0.50921">
        <ele>172.2</ele>
        <time>2025-07-10T06:54:59.728Z</time>
      </trkpt>
      <trkpt lat="44.28755" lon="0.50914">
        <ele>172.3</ele>
        <time>2025-07-10T06:55:07.728Z</time>
      </trkpt>
      <trkpt lat="44.2875" lon="0.50904">
        <ele>172.5</ele>
        <time>2025-07-10T06:55:15.728Z</time>
      </trkpt>
      <trkpt lat="44.28743" lon="0.50905">
        <ele>171.9</ele>
        <time>2025-07-10T06:55:19.728Z</time>
      </trkpt>
      <trkpt lat="44.28728" lon="0.50926">
        <ele>170</ele>
        <time>2025-07-10T06:55:35.728Z</time>
      </trkpt>
      <trkpt lat="44.28712" lon="0.50937">
        <ele>169.2</ele>
        <time>2025-07-10T06:55:51.728Z</time>
      </trkpt>
      <trkpt lat="44.28704" lon="0.50947">
        <ele>168.7</ele>
        <time>2025-07-10T06:55:59.728Z</time>
      </trkpt>
      <trkpt lat="44.28702" lon="0.50956">
        <ele>167.9</ele>
        <time>2025-07-10T06:56:07.728Z</time>
      </trkpt>
      <trkpt lat="44.28706" lon="0.50965">
        <ele>167.1</ele>
        <time>2025-07-10T06:56:15.728Z</time>
      </trkpt>
      <trkpt lat="44.28712" lon="0.50974">
        <ele>166.5</ele>
        <time>2025-07-10T06:56:27.728Z</time>
      </trkpt>
      <trkpt lat="44.28713" lon="0.50978">
        <ele>166</ele>
        <time>2025-07-10T06:56:29.728Z</time>
      </trkpt>
      <trkpt lat="44.28709" lon="0.50977">
        <ele>165.9</ele>
        <time>2025-07-10T06:56:31.728Z</time>
      </trkpt>
      <trkpt lat="44.28697" lon="0.5097">
        <ele>166.3</ele>
        <time>2025-07-10T06:56:47.728Z</time>
      </trkpt>
      <trkpt lat="44.28687" lon="0.50967">
        <ele>166.3</ele>
        <time>2025-07-10T06:56:55.728Z</time>
      </trkpt>
      <trkpt lat="44.28668" lon="0.50972">
        <ele>165.1</ele>
        <time>2025-07-10T06:59:23.728Z</time>
      </trkpt>
      <trkpt lat="44.28663" lon="0.50968">
        <ele>165.3</ele>
        <time>2025-07-10T06:59:55.728Z</time>
      </trkpt>
      <trkpt lat="44.28657" lon="0.50964">
        <ele>165.4</ele>
        <time>2025-07-10T07:00:03.729Z</time>
      </trkpt>
      <trkpt lat="44.2865" lon="0.50953">
        <ele>166.1</ele>
        <time>2025-07-10T07:00:11.728Z</time>
      </trkpt>
      <trkpt lat="44.28643" lon="0.50932">
        <ele>166.7</ele>
        <time>2025-07-10T07:00:27.728Z</time>
      </trkpt>
      <trkpt lat="44.28637" lon="0.50922">
        <ele>166.7</ele>
        <time>2025-07-10T07:00:35.728Z</time>
      </trkpt>
      <trkpt lat="44.28622" lon="0.50905">
        <ele>166.2</ele>
        <time>2025-07-10T07:00:51.728Z</time>
      </trkpt>
      <trkpt lat="44.28614" lon="0.50869">
        <ele>166.3</ele>
        <time>2025-07-10T07:01:15.728Z</time>
      </trkpt>
      <trkpt lat="44.28619" lon="0.50843">
        <ele>166.3</ele>
        <time>2025-07-10T07:01:31.728Z</time>
      </trkpt>
      <trkpt lat="44.28637" lon="0.50812">
        <ele>168</ele>
        <time>2025-07-10T07:01:55.728Z</time>
      </trkpt>
      <trkpt lat="44.2864" lon="0.50754">
        <ele>167.2</ele>
        <time>2025-07-10T07:02:35.728Z</time>
      </trkpt>
      <trkpt lat="44.28604" lon="0.5071">
        <ele>163.3</ele>
        <time>2025-07-10T07:03:39.728Z</time>
      </trkpt>
      <trkpt lat="44.28568" lon="0.50667">
        <ele>159.7</ele>
        <time>2025-07-10T07:04:43.728Z</time>
      </trkpt>
      <trkpt lat="44.28565" lon="0.50653">
        <ele>159.9</ele>
        <time>2025-07-10T07:04:59.728Z</time>
      </trkpt>
      <trkpt lat="44.28538" lon="0.50584">
        <ele>158.5</ele>
        <time>2025-07-10T07:05:47.728Z</time>
      </trkpt>
      <trkpt lat="44.28526" lon="0.50534">
        <ele>158.5</ele>
        <time>2025-07-10T07:06:19.728Z</time>
      </trkpt>
      <trkpt lat="44.28511" lon="0.50492">
        <ele>158.3</ele>
        <time>2025-07-10T07:06:51.728Z</time>
      </trkpt>
      <trkpt lat="44.28465" lon="0.50401">
        <ele>156.2</ele>
        <time>2025-07-10T07:08:03.728Z</time>
      </trkpt>
      <trkpt lat="44.28456" lon="0.50392">
        <ele>155.3</ele>
        <time>2025-07-10T07:08:11.728Z</time>
      </trkpt>
      <trkpt lat="44.28399" lon="0.50297">
        <ele>155.2</ele>
        <time>2025-07-10T07:09:19.728Z</time>
      </trkpt>
      <trkpt lat="44.28407" lon="0.50254">
        <ele>159.3</ele>
        <time>2025-07-10T07:09:51.728Z</time>
      </trkpt>
      <trkpt lat="44.28411" lon="0.50242">
        <ele>160.4</ele>
        <time>2025-07-10T07:09:59.728Z</time>
      </trkpt>
      <trkpt lat="44.28467" lon="0.50162">
        <ele>162.2</ele>
        <time>2025-07-10T07:11:11.728Z</time>
      </trkpt>
      <trkpt lat="44.28465" lon="0.50151">
        <ele>162.3</ele>
        <time>2025-07-10T07:11:19.728Z</time>
      </trkpt>
      <trkpt lat="44.28453" lon="0.50133">
        <ele>162.7</ele>
        <time>2025-07-10T07:11:35.728Z</time>
      </trkpt>
      <trkpt lat="44.28442" lon="0.50087">
        <ele>162.9</ele>
        <time>2025-07-10T07:12:07.728Z</time>
      </trkpt>
      <trkpt lat="44.2843" lon="0.50077">
        <ele>162.4</ele>
        <time>2025-07-10T07:12:23.728Z</time>
      </trkpt>
      <trkpt lat="44.28423" lon="0.50068">
        <ele>162.1</ele>
        <time>2025-07-10T07:12:31.728Z</time>
      </trkpt>
      <trkpt lat="44.28349" lon="0.50016">
        <ele>161</ele>
        <time>2025-07-10T07:13:59.728Z</time>
      </trkpt>
      <trkpt lat="44.28343" lon="0.50008">
        <ele>161</ele>
        <time>2025-07-10T07:14:39.728Z</time>
      </trkpt>
      <trkpt lat="44.28289" lon="0.49976">
        <ele>161.9</ele>
        <time>2025-07-10T07:15:27.728Z</time>
      </trkpt>
      <trkpt lat="44.28254" lon="0.49967">
        <ele>162.9</ele>
        <time>2025-07-10T07:15:59.728Z</time>
      </trkpt>
      <trkpt lat="44.28233" lon="0.49964">
        <ele>163.6</ele>
        <time>2025-07-10T07:16:15.728Z</time>
      </trkpt>
      <trkpt lat="44.28197" lon="0.49943">
        <ele>164</ele>
        <time>2025-07-10T07:16:47.728Z</time>
      </trkpt>
      <trkpt lat="44.28124" lon="0.49866">
        <ele>161.4</ele>
        <time>2025-07-10T07:18:07.728Z</time>
      </trkpt>
      <trkpt lat="44.28112" lon="0.4986">
        <ele>160</ele>
        <time>2025-07-10T07:18:23.728Z</time>
      </trkpt>
      <trkpt lat="44.28099" lon="0.4986">
        <ele>159</ele>
        <time>2025-07-10T07:18:35.728Z</time>
      </trkpt>
      <trkpt lat="44.28096" lon="0.49857">
        <ele>158.3</ele>
        <time>2025-07-10T07:18:39.728Z</time>
      </trkpt>
      <trkpt lat="44.28063" lon="0.49848">
        <ele>156.2</ele>
        <time>2025-07-10T07:19:11.728Z</time>
      </trkpt>
      <trkpt lat="44.28043" lon="0.49848">
        <ele>156.3</ele>
        <time>2025-07-10T07:19:27.728Z</time>
      </trkpt>
      <trkpt lat="44.28035" lon="0.49851">
        <ele>156.8</ele>
        <time>2025-07-10T07:19:43.728Z</time>
      </trkpt>
      <trkpt lat="44.28019" lon="0.49929">
        <ele>162.4</ele>
        <time>2025-07-10T07:20:55.728Z</time>
      </trkpt>
      <trkpt lat="44.28006" lon="0.49994">
        <ele>163.8</ele>
      </trkpt>
      <trkpt lat="44.2799" lon="0.50054">
        <ele>164.9</ele>
        <time>2025-07-10T07:22:31.728Z</time>
      </trkpt>
      <trkpt lat="44.27983" lon="0.50061">
        <ele>165</ele>
        <time>2025-07-10T07:22:47.728Z</time>
      </trkpt>
      <trkpt lat="44.27976" lon="0.50059">
        <ele>165</ele>
        <time>2025-07-10T07:23:51.728Z</time>
      </trkpt>
      <trkpt lat="44.27921" lon="0.50037">
        <ele>164</ele>
        <time>2025-07-10T07:26:23.728Z</time>
      </trkpt>
      <trkpt lat="44.27902" lon="0.50033">
        <ele>164</ele>
        <time>2025-07-10T07:26:39.728Z</time>
      </trkpt>
      <trkpt lat="44.27849" lon="0.50006">
        <ele>164</ele>
        <time>2025-07-10T07:27:27.728Z</time>
      </trkpt>
      <trkpt lat="44.27833" lon="0.49993">
        <ele>163.7</ele>
        <time>2025-07-10T07:27:43.728Z</time>
      </trkpt>
      <trkpt lat="44.27764" lon="0.49956">
        <ele>163.7</ele>
        <time>2025-07-10T07:28:47.728Z</time>
      </trkpt>
      <trkpt lat="44.27756" lon="0.49949">
        <ele>163.8</ele>
        <time>2025-07-10T07:28:55.728Z</time>
      </trkpt>
      <trkpt lat="44.27729" lon="0.49909">
        <ele>163.7</ele>
        <time>2025-07-10T07:29:27.728Z</time>
      </trkpt>
      <trkpt lat="44.27695" lon="0.49887">
        <ele>163</ele>
        <time>2025-07-10T07:29:59.728Z</time>
      </trkpt>
      <trkpt lat="44.27642" lon="0.4986">
        <ele>161.2</ele>
        <time>2025-07-10T07:30:47.728Z</time>
      </trkpt>
      <trkpt lat="44.27637" lon="0.49853">
        <ele>161</ele>
        <time>2025-07-10T07:30:55.728Z</time>
      </trkpt>
      <trkpt lat="44.27629" lon="0.49812">
        <ele>160</ele>
        <time>2025-07-10T07:31:27.728Z</time>
      </trkpt>
      <trkpt lat="44.27591" lon="0.4972">
        <ele>159.6</ele>
        <time>2025-07-10T07:32:31.728Z</time>
      </trkpt>
      <trkpt lat="44.27501" lon="0.49619">
        <ele>154.3</ele>
        <time>2025-07-10T07:34:07.728Z</time>
      </trkpt>
      <trkpt lat="44.27484" lon="0.49608">
        <ele>153.2</ele>
        <time>2025-07-10T07:34:23.728Z</time>
      </trkpt>
      <trkpt lat="44.27475" lon="0.49605">
        <ele>152.9</ele>
        <time>2025-07-10T07:34:31.728Z</time>
      </trkpt>
      <trkpt lat="44.27458" lon="0.49612">
        <ele>153</ele>
        <time>2025-07-10T07:34:47.728Z</time>
      </trkpt>
      <trkpt lat="44.27439" lon="0.49614">
        <ele>152.9</ele>
        <time>2025-07-10T07:35:03.728Z</time>
      </trkpt>
      <trkpt lat="44.27413" lon="0.49581">
        <ele>155.2</ele>
        <time>2025-07-10T07:36:15.728Z</time>
      </trkpt>
      <trkpt lat="44.27403" lon="0.49577">
        <ele>155.7</ele>
        <time>2025-07-10T07:37:51.728Z</time>
      </trkpt>
      <trkpt lat="44.27378" lon="0.49572">
        <ele>157.4</ele>
        <time>2025-07-10T07:38:19.728Z</time>
      </trkpt>
      <trkpt lat="44.27346" lon="0.49559">
        <ele>159</ele>
        <time>2025-07-10T07:38:51.728Z</time>
      </trkpt>
      <trkpt lat="44.27315" lon="0.49538">
        <ele>160</ele>
        <time>2025-07-10T07:39:23.728Z</time>
      </trkpt>
      <trkpt lat="44.27277" lon="0.49486">
        <ele>158.3</ele>
        <time>2025-07-10T07:40:11.728Z</time>
      </trkpt>
      <trkpt lat="44.27257" lon="0.49448">
        <ele>155.1</ele>
        <time>2025-07-10T07:40:43.728Z</time>
      </trkpt>
      <trkpt lat="44.2725" lon="0.49429">
        <ele>153.4</ele>
        <time>2025-07-10T07:40:59.728Z</time>
      </trkpt>
      <trkpt lat="44.27236" lon="0.49421">
        <ele>151</ele>
        <time>2025-07-10T07:41:15.728Z</time>
      </trkpt>
      <trkpt lat="44.27194" lon="0.49422">
        <ele>145.1</ele>
        <time>2025-07-10T07:41:55.728Z</time>
      </trkpt>
      <trkpt lat="44.2719" lon="0.49419">
        <ele>144.6</ele>
        <time>2025-07-10T07:41:59.728Z</time>
      </trkpt>
      <trkpt lat="44.27185" lon="0.49406">
        <ele>143.9</ele>
        <time>2025-07-10T07:42:07.728Z</time>
      </trkpt>
      <trkpt lat="44.27163" lon="0.49306">
        <ele>139.7</ele>
        <time>2025-07-10T07:43:11.728Z</time>
      </trkpt>
      <trkpt lat="44.27157" lon="0.49299">
        <ele>138.9</ele>
        <time>2025-07-10T07:43:19.728Z</time>
      </trkpt>
      <trkpt lat="44.27099" lon="0.49307">
        <ele>135.1</ele>
        <time>2025-07-10T07:44:07.728Z</time>
      </trkpt>
      <trkpt lat="44.27064" lon="0.49308">
        <ele>132.6</ele>
        <time>2025-07-10T07:44:39.728Z</time>
      </trkpt>
      <trkpt lat="44.27055" lon="0.49304">
        <ele>131.9</ele>
        <time>2025-07-10T07:44:47.728Z</time>
      </trkpt>
      <trkpt lat="44.27052" lon="0.49295">
        <ele>131.3</ele>
        <time>2025-07-10T07:44:55.728Z</time>
      </trkpt>
      <trkpt lat="44.27022" lon="0.49266">
        <ele>125.5</ele>
        <time>2025-07-10T07:45:31.728Z</time>
      </trkpt>
      <trkpt lat="44.27015" lon="0.49262">
        <ele>123.8</ele>
        <time>2025-07-10T07:45:39.728Z</time>
      </trkpt>
      <trkpt lat="44.26995" lon="0.49239">
        <ele>121</ele>
        <time>2025-07-10T07:46:03.728Z</time>
      </trkpt>
      <trkpt lat="44.2698" lon="0.49229">
        <ele>117.7</ele>
        <time>2025-07-10T07:46:19.728Z</time>
      </trkpt>
      <trkpt lat="44.26966" lon="0.49216">
        <ele>114.4</ele>
        <time>2025-07-10T07:46:35.728Z</time>
      </trkpt>
      <trkpt lat="44.26954" lon="0.49201">
        <ele>111.3</ele>
        <time>2025-07-10T07:46:51.728Z</time>
      </trkpt>
      <trkpt lat="44.2693" lon="0.4914">
        <ele>101.3</ele>
        <time>2025-07-10T07:47:43.728Z</time>
      </trkpt>
      <trkpt lat="44.26925" lon="0.49144">
        <ele>99.6</ele>
        <time>2025-07-10T07:47:51.728Z</time>
      </trkpt>
      <trkpt lat="44.26927" lon="0.49152">
        <ele>100.4</ele>
        <time>2025-07-10T07:47:59.728Z</time>
      </trkpt>
      <trkpt lat="44.26925" lon="0.49172">
        <ele>100</ele>
        <time>2025-07-10T07:48:15.728Z</time>
      </trkpt>
      <trkpt lat="44.26909" lon="0.49169">
        <ele>93.5</ele>
        <time>2025-07-10T07:48:35.728Z</time>
      </trkpt>
      <trkpt lat="44.26906" lon="0.49159">
        <ele>92.2</ele>
        <time>2025-07-10T07:48:43.728Z</time>
      </trkpt>
      <trkpt lat="44.26898" lon="0.49148">
        <ele>89.3</ele>
        <time>2025-07-10T07:48:59.728Z</time>
      </trkpt>
      <trkpt lat="44.26885" lon="0.49109">
        <ele>83.5</ele>
        <time>2025-07-10T07:49:31.728Z</time>
      </trkpt>
      <trkpt lat="44.26881" lon="0.49086">
        <ele>80.5</ele>
        <time>2025-07-10T07:49:47.728Z</time>
      </trkpt>
      <trkpt lat="44.26894" lon="0.49013">
        <ele>78.8</ele>
        <time>2025-07-10T07:50:43.728Z</time>
      </trkpt>
      <trkpt lat="44.26884" lon="0.48972">
        <ele>73</ele>
        <time>2025-07-10T07:51:15.728Z</time>
      </trkpt>
      <trkpt lat="44.26885" lon="0.4896">
        <ele>72.3</ele>
        <time>2025-07-10T07:51:23.728Z</time>
      </trkpt>
      <trkpt lat="44.26882" lon="0.4895">
        <ele>71.1</ele>
        <time>2025-07-10T07:54:03.728Z</time>
      </trkpt>
      <trkpt lat="44.2688" lon="0.48923">
        <ele>69.3</ele>
        <time>2025-07-10T07:58:03.728Z</time>
      </trkpt>
      <trkpt lat="44.26873" lon="0.48901">
        <ele>68.4</ele>
        <time>2025-07-10T07:58:19.728Z</time>
      </trkpt>
      <trkpt lat="44.26846" lon="0.48808">
        <ele>68</ele>
        <time>2025-07-10T07:59:23.728Z</time>
      </trkpt>
      <trkpt lat="44.26825" lon="0.48754">
        <ele>68.3</ele>
        <time>2025-07-10T07:59:59.728Z</time>
      </trkpt>
      <trkpt lat="44.26828" lon="0.48748">
        <ele>68.8</ele>
        <time>2025-07-10T08:00:03.728Z</time>
      </trkpt>
      <trkpt lat="44.26901" lon="0.48731">
        <ele>72.5</ele>
        <time>2025-07-10T08:01:07.728Z</time>
      </trkpt>
      <trkpt lat="44.26931" lon="0.48727">
        <ele>74</ele>
        <time>2025-07-10T08:01:31.728Z</time>
      </trkpt>
      <trkpt lat="44.26966" lon="0.48733">
        <ele>74.3</ele>
        <time>2025-07-10T08:02:03.728Z</time>
      </trkpt>
      <trkpt lat="44.26988" lon="0.48736">
        <ele>74</ele>
        <time>2025-07-10T08:02:19.728Z</time>
      </trkpt>
      <trkpt lat="44.27006" lon="0.48739">
        <ele>73.5</ele>
      </trkpt>
      <trkpt lat="44.27121" lon="0.48719">
        <ele>74.2</ele>
        <time>2025-07-10T08:04:01.728Z</time>
      </trkpt>
      <trkpt lat="44.27151" lon="0.4872">
        <ele>74.5</ele>
        <time>2025-07-10T08:04:25.728Z</time>
      </trkpt>
      <trkpt lat="44.27192" lon="0.48744">
        <ele>73.5</ele>
        <time>2025-07-10T08:04:57.728Z</time>
      </trkpt>
      <trkpt lat="44.272" lon="0.48752">
        <ele>73.3</ele>
        <time>2025-07-10T08:05:05.728Z</time>
      </trkpt>
      <trkpt lat="44.27208" lon="0.48757">
        <ele>73.5</ele>
        <time>2025-07-10T08:05:13.728Z</time>
      </trkpt>
      <trkpt lat="44.27224" lon="0.48765">
        <ele>73.4</ele>
        <time>2025-07-10T08:05:29.728Z</time>
      </trkpt>
      <trkpt lat="44.27231" lon="0.48774">
        <ele>72.7</ele>
        <time>2025-07-10T08:05:37.728Z</time>
      </trkpt>
      <trkpt lat="44.27277" lon="0.48797">
        <ele>72.3</ele>
        <time>2025-07-10T08:06:09.728Z</time>
      </trkpt>
      <trkpt lat="44.27284" lon="0.4881">
        <ele>71.8</ele>
        <time>2025-07-10T08:06:25.728Z</time>
      </trkpt>
      <trkpt lat="44.27306" lon="0.48822">
        <ele>71</ele>
        <time>2025-07-10T08:06:49.728Z</time>
      </trkpt>
      <trkpt lat="44.2731" lon="0.48827">
        <ele>71</ele>
        <time>2025-07-10T08:06:53.728Z</time>
      </trkpt>
      <trkpt lat="44.27339" lon="0.48835">
        <ele>71.1</ele>
        <time>2025-07-10T08:07:17.728Z</time>
      </trkpt>
      <trkpt lat="44.2736" lon="0.48846">
        <ele>71.5</ele>
        <time>2025-07-10T08:07:37.728Z</time>
      </trkpt>
      <trkpt lat="44.27398" lon="0.48857">
        <ele>72.4</ele>
        <time>2025-07-10T08:07:55.728Z</time>
      </trkpt>
      <trkpt lat="44.27416" lon="0.48863">
        <ele>73.1</ele>
        <time>2025-07-10T08:08:13.728Z</time>
      </trkpt>
      <trkpt lat="44.27448" lon="0.48876">
        <ele>74.9</ele>
        <time>2025-07-10T08:08:41.728Z</time>
      </trkpt>
      <trkpt lat="44.27462" lon="0.48882">
        <ele>76.1</ele>
        <time>2025-07-10T08:09:09.728Z</time>
      </trkpt>
      <trkpt lat="44.27481" lon="0.4889">
        <ele>77.9</ele>
        <time>2025-07-10T08:09:41.728Z</time>
      </trkpt>
      <trkpt lat="44.27491" lon="0.48887">
        <ele>79</ele>
        <time>2025-07-10T08:09:49.728Z</time>
      </trkpt>
      <trkpt lat="44.27498" lon="0.48878">
        <ele>79.7</ele>
        <time>2025-07-10T08:09:57.728Z</time>
      </trkpt>
      <trkpt lat="44.27503" lon="0.4887">
        <ele>80.4</ele>
        <time>2025-07-10T08:10:05.728Z</time>
      </trkpt>
      <trkpt lat="44.27515" lon="0.48855">
        <ele>81.8</ele>
        <time>2025-07-10T08:10:21.728Z</time>
      </trkpt>
      <trkpt lat="44.27523" lon="0.48847">
        <ele>83</ele>
        <time>2025-07-10T08:10:29.728Z</time>
      </trkpt>
      <trkpt lat="44.2753" lon="0.48842">
        <ele>83.9</ele>
        <time>2025-07-10T08:10:37.728Z</time>
      </trkpt>
      <trkpt lat="44.27558" lon="0.48858">
        <ele>85.4</ele>
        <time>2025-07-10T08:11:09.728Z</time>
      </trkpt>
      <trkpt lat="44.27576" lon="0.48876">
        <ele>85.5</ele>
        <time>2025-07-10T08:12:13.728Z</time>
      </trkpt>
      <trkpt lat="44.27591" lon="0.48883">
        <ele>85.5</ele>
        <time>2025-07-10T08:12:29.728Z</time>
      </trkpt>
      <trkpt lat="44.27618" lon="0.48888">
        <ele>84.9</ele>
        <time>2025-07-10T08:13:01.728Z</time>
      </trkpt>
      <trkpt lat="44.27618" lon="0.48888">
        <ele>84.9</ele>
        <time>2025-07-10T08:13:49.728Z</time>
      </trkpt>
      <trkpt lat="44.27634" lon="0.48893">
        <ele>84</ele>
        <time>2025-07-10T08:14:05.728Z</time>
      </trkpt>
      <trkpt lat="44.27645" lon="0.48901">
        <ele>83.8</ele>
        <time>2025-07-10T08:14:13.728Z</time>
      </trkpt>
      <trkpt lat="44.27676" lon="0.48941">
        <ele>83.2</ele>
        <time>2025-07-10T08:14:45.728Z</time>
      </trkpt>
      <trkpt lat="44.27716" lon="0.4895">
        <ele>82.8</ele>
        <time>2025-07-10T08:15:17.728Z</time>
      </trkpt>
      <trkpt lat="44.27755" lon="0.48967">
        <ele>81.9</ele>
        <time>2025-07-10T08:15:45.728Z</time>
      </trkpt>
      <trkpt lat="44.278" lon="0.48996">
        <ele>80.6</ele>
        <time>2025-07-10T08:16:29.728Z</time>
      </trkpt>
      <trkpt lat="44.27804" lon="0.49004">
        <ele>80</ele>
        <time>2025-07-10T08:16:37.728Z</time>
      </trkpt>
      <trkpt lat="44.27814" lon="0.49009">
        <ele>80.5</ele>
        <time>2025-07-10T08:16:45.728Z</time>
      </trkpt>
      <trkpt lat="44.27823" lon="0.4901">
        <ele>81</ele>
        <time>2025-07-10T08:16:53.728Z</time>
      </trkpt>
      <trkpt lat="44.27841" lon="0.49006">
        <ele>82.1</ele>
        <time>2025-07-10T08:17:09.728Z</time>
      </trkpt>
      <trkpt lat="44.27862" lon="0.49005">
        <ele>82.8</ele>
        <time>2025-07-10T08:17:25.728Z</time>
      </trkpt>
      <trkpt lat="44.27899" lon="0.49015">
        <ele>84.4</ele>
        <time>2025-07-10T08:17:57.728Z</time>
      </trkpt>
      <trkpt lat="44.27928" lon="0.49032">
        <ele>84.6</ele>
        <time>2025-07-10T08:18:21.728Z</time>
      </trkpt>
      <trkpt lat="44.27955" lon="0.49062">
        <ele>82.2</ele>
        <time>2025-07-10T08:18:57.728Z</time>
      </trkpt>
      <trkpt lat="44.27963" lon="0.49062">
        <ele>82.7</ele>
        <time>2025-07-10T08:19:05.728Z</time>
      </trkpt>
      <trkpt lat="44.2797" lon="0.49066">
        <ele>82.7</ele>
        <time>2025-07-10T08:19:13.728Z</time>
      </trkpt>
      <trkpt lat="44.27979" lon="0.49066">
        <ele>83.6</ele>
        <time>2025-07-10T08:19:21.728Z</time>
      </trkpt>
      <trkpt lat="44.27989" lon="0.49074">
        <ele>83.7</ele>
        <time>2025-07-10T08:19:31.728Z</time>
      </trkpt>
      <trkpt lat="44.28007" lon="0.49078">
        <ele>84.8</ele>
        <time>2025-07-10T08:19:47.728Z</time>
      </trkpt>
      <trkpt lat="44.2802" lon="0.49075">
        <ele>86.6</ele>
        <time>2025-07-10T08:20:03.728Z</time>
      </trkpt>
      <trkpt lat="44.28035" lon="0.49093">
        <ele>85.6</ele>
        <time>2025-07-10T08:20:19.728Z</time>
      </trkpt>
      <trkpt lat="44.28051" lon="0.49108">
        <ele>85.1</ele>
        <time>2025-07-10T08:21:41.728Z</time>
      </trkpt>
      <trkpt lat="44.28059" lon="0.49107">
        <ele>85.7</ele>
        <time>2025-07-10T08:24:25.728Z</time>
      </trkpt>
      <trkpt lat="44.28081" lon="0.49108">
        <ele>86.5</ele>
        <time>2025-07-10T08:24:41.728Z</time>
      </trkpt>
      <trkpt lat="44.28089" lon="0.49112">
        <ele>86.3</ele>
        <time>2025-07-10T08:24:49.728Z</time>
      </trkpt>
      <trkpt lat="44.28106" lon="0.49111">
        <ele>87.7</ele>
        <time>2025-07-10T08:25:05.728Z</time>
      </trkpt>
      <trkpt lat="44.28119" lon="0.49106">
        <ele>89.6</ele>
        <time>2025-07-10T08:25:21.728Z</time>
      </trkpt>
      <trkpt lat="44.28136" lon="0.49106">
        <ele>90.7</ele>
        <time>2025-07-10T08:25:37.728Z</time>
      </trkpt>
      <trkpt lat="44.28151" lon="0.49102">
        <ele>90.4</ele>
        <time>2025-07-10T08:25:53.728Z</time>
      </trkpt>
      <trkpt lat="44.28165" lon="0.49091">
        <ele>90.9</ele>
        <time>2025-07-10T08:26:05.728Z</time>
      </trkpt>
      <trkpt lat="44.28179" lon="0.49069">
        <ele>91.4</ele>
        <time>2025-07-10T08:26:37.728Z</time>
      </trkpt>
      <trkpt lat="44.28187" lon="0.49067">
        <ele>90.2</ele>
        <time>2025-07-10T08:26:53.728Z</time>
      </trkpt>
      <trkpt lat="44.28199" lon="0.4907">
        <ele>89.5</ele>
        <time>2025-07-10T08:27:01.728Z</time>
      </trkpt>
      <trkpt lat="44.28233" lon="0.49096">
        <ele>91.2</ele>
        <time>2025-07-10T08:27:33.728Z</time>
      </trkpt>
      <trkpt lat="44.28249" lon="0.49104">
        <ele>91.9</ele>
        <time>2025-07-10T08:27:49.728Z</time>
      </trkpt>
      <trkpt lat="44.28291" lon="0.49134">
        <ele>94.2</ele>
        <time>2025-07-10T08:28:29.728Z</time>
      </trkpt>
      <trkpt lat="44.283" lon="0.49139">
        <ele>95</ele>
        <time>2025-07-10T08:28:41.728Z</time>
      </trkpt>
      <trkpt lat="44.28311" lon="0.49145">
        <ele>94.9</ele>
        <time>2025-07-10T08:30:21.728Z</time>
      </trkpt>
      <trkpt lat="44.28306" lon="0.49136">
        <ele>96.4</ele>
        <time>2025-07-10T08:31:25.728Z</time>
      </trkpt>
      <trkpt lat="44.28275" lon="0.49094">
        <ele>98.9</ele>
        <time>2025-07-10T08:31:57.728Z</time>
      </trkpt>
      <trkpt lat="44.28264" lon="0.49071">
        <ele>99.8</ele>
        <time>2025-07-10T08:32:13.728Z</time>
      </trkpt>
      <trkpt lat="44.28253" lon="0.49012">
        <ele>102.7</ele>
        <time>2025-07-10T08:32:45.728Z</time>
      </trkpt>
      <trkpt lat="44.28259" lon="0.48964">
        <ele>105.4</ele>
        <time>2025-07-10T08:33:17.728Z</time>
      </trkpt>
      <trkpt lat="44.28267" lon="0.4895">
        <ele>107</ele>
      </trkpt>
      <trkpt lat="44.28274" lon="0.48936">
        <ele>108.8</ele>
        <time>2025-07-10T08:33:33.728Z</time>
      </trkpt>
      <trkpt lat="44.28288" lon="0.48894">
        <ele>113</ele>
        <time>2025-07-10T08:34:05.728Z</time>
      </trkpt>
      <trkpt lat="44.28292" lon="0.48883">
        <ele>113.9</ele>
        <time>2025-07-10T08:34:09.728Z</time>
      </trkpt>
      <trkpt lat="44.283" lon="0.4886">
        <ele>115.3</ele>
        <time>2025-07-10T08:34:33.728Z</time>
      </trkpt>
      <trkpt lat="44.28302" lon="0.48851">
        <ele>115.8</ele>
        <time>2025-07-10T08:34:37.728Z</time>
      </trkpt>
      <trkpt lat="44.28306" lon="0.4885">
        <ele>117.1</ele>
        <time>2025-07-10T08:34:41.728Z</time>
      </trkpt>
      <trkpt lat="44.28307" lon="0.48866">
        <ele>117.6</ele>
        <time>2025-07-10T08:34:49.728Z</time>
      </trkpt>
      <trkpt lat="44.28304" lon="0.48919">
        <ele>118.5</ele>
        <time>2025-07-10T08:35:21.728Z</time>
      </trkpt>
      <trkpt lat="44.283" lon="0.48972">
        <ele>115.4</ele>
        <time>2025-07-10T08:35:53.728Z</time>
      </trkpt>
      <trkpt lat="44.28308" lon="0.4901">
        <ele>114.8</ele>
        <time>2025-07-10T08:36:17.728Z</time>
      </trkpt>
      <trkpt lat="44.28316" lon="0.49019">
        <ele>115.8</ele>
        <time>2025-07-10T08:36:25.728Z</time>
      </trkpt>
      <trkpt lat="44.28321" lon="0.49028">
        <ele>115.8</ele>
        <time>2025-07-10T08:36:33.728Z</time>
      </trkpt>
      <trkpt lat="44.28328" lon="0.49035">
        <ele>115.9</ele>
        <time>2025-07-10T08:36:41.728Z</time>
      </trkpt>
      <trkpt lat="44.28334" lon="0.49044">
        <ele>115.1</ele>
        <time>2025-07-10T08:36:49.728Z</time>
      </trkpt>
      <trkpt lat="44.28345" lon="0.49054">
        <ele>114.7</ele>
        <time>2025-07-10T08:37:05.728Z</time>
      </trkpt>
      <trkpt lat="44.2836" lon="0.49062">
        <ele>114.4</ele>
        <time>2025-07-10T08:37:21.728Z</time>
      </trkpt>
      <trkpt lat="44.28377" lon="0.49065">
        <ele>115.1</ele>
        <time>2025-07-10T08:37:37.728Z</time>
      </trkpt>
      <trkpt lat="44.28392" lon="0.49072">
        <ele>114.7</ele>
        <time>2025-07-10T08:37:45.728Z</time>
      </trkpt>
      <trkpt lat="44.28402" lon="0.49073">
        <ele>115.7</ele>
        <time>2025-07-10T08:37:49.728Z</time>
      </trkpt>
      <trkpt lat="44.28421" lon="0.49084">
        <ele>114.8</ele>
        <time>2025-07-10T08:38:05.728Z</time>
      </trkpt>
      <trkpt lat="44.28438" lon="0.49084">
        <ele>114.9</ele>
        <time>2025-07-10T08:38:21.728Z</time>
      </trkpt>
      <trkpt lat="44.28456" lon="0.49072">
        <ele>117.6</ele>
        <time>2025-07-10T08:38:37.728Z</time>
      </trkpt>
      <trkpt lat="44.2846" lon="0.49068">
        <ele>118.5</ele>
        <time>2025-07-10T08:40:29.728Z</time>
      </trkpt>
      <trkpt lat="44.2847" lon="0.49061">
        <ele>120.4</ele>
        <time>2025-07-10T08:41:01.728Z</time>
      </trkpt>
      <trkpt lat="44.28478" lon="0.4904">
        <ele>126.9</ele>
        <time>2025-07-10T08:41:33.728Z</time>
      </trkpt>
      <trkpt lat="44.28478" lon="0.49035">
        <ele>128.6</ele>
        <time>2025-07-10T08:41:41.728Z</time>
      </trkpt>
      <trkpt lat="44.28477" lon="0.49026">
        <ele>131.5</ele>
        <time>2025-07-10T08:41:49.728Z</time>
      </trkpt>
      <trkpt lat="44.28473" lon="0.48996">
        <ele>139.5</ele>
        <time>2025-07-10T08:42:21.728Z</time>
      </trkpt>
      <trkpt lat="44.28474" lon="0.48928">
        <ele>146.2</ele>
        <time>2025-07-10T08:45:33.728Z</time>
      </trkpt>
      <trkpt lat="44.28484" lon="0.48783">
        <ele>150.3</ele>
        <time>2025-07-10T08:47:33.728Z</time>
      </trkpt>
      <trkpt lat="44.28489" lon="0.48775">
        <ele>150.8</ele>
        <time>2025-07-10T08:47:41.728Z</time>
      </trkpt>
      <trkpt lat="44.28499" lon="0.48775">
        <ele>151.9</ele>
        <time>2025-07-10T08:47:49.728Z</time>
      </trkpt>
      <trkpt lat="44.28544" lon="0.48795">
        <ele>155.5</ele>
        <time>2025-07-10T08:48:37.728Z</time>
      </trkpt>
      <trkpt lat="44.28558" lon="0.48789">
        <ele>156.1</ele>
        <time>2025-07-10T08:48:53.728Z</time>
      </trkpt>
      <trkpt lat="44.28568" lon="0.48786">
        <ele>155.5</ele>
        <time>2025-07-10T08:49:09.728Z</time>
      </trkpt>
      <trkpt lat="44.28596" lon="0.48773">
        <ele>155</ele>
        <time>2025-07-10T08:49:31.728Z</time>
      </trkpt>
      <trkpt lat="44.28616" lon="0.48761">
        <ele>155.8</ele>
        <time>2025-07-10T08:49:45.728Z</time>
      </trkpt>
      <trkpt lat="44.28633" lon="0.48755">
        <ele>155.7</ele>
        <time>2025-07-10T08:50:01.728Z</time>
      </trkpt>
      <trkpt lat="44.28684" lon="0.48752">
        <ele>155.3</ele>
        <time>2025-07-10T08:50:49.728Z</time>
      </trkpt>
      <trkpt lat="44.28704" lon="0.48766">
        <ele>154.9</ele>
        <time>2025-07-10T08:51:05.728Z</time>
      </trkpt>
      <trkpt lat="44.28723" lon="0.4878">
        <ele>154.9</ele>
        <time>2025-07-10T08:51:29.728Z</time>
      </trkpt>
      <trkpt lat="44.28749" lon="0.48788">
        <ele>158.8</ele>
        <time>2025-07-10T08:51:57.728Z</time>
      </trkpt>
      <trkpt lat="44.28759" lon="0.48781">
        <ele>161</ele>
        <time>2025-07-10T08:52:13.728Z</time>
      </trkpt>
      <trkpt lat="44.28765" lon="0.48771">
        <ele>162.9</ele>
        <time>2025-07-10T08:52:29.728Z</time>
      </trkpt>
      <trkpt lat="44.28774" lon="0.48766">
        <ele>164.4</ele>
        <time>2025-07-10T08:52:45.728Z</time>
      </trkpt>
      <trkpt lat="44.28778" lon="0.48766">
        <ele>164.9</ele>
        <time>2025-07-10T08:52:49.728Z</time>
      </trkpt>
      <trkpt lat="44.28803" lon="0.48792">
        <ele>166.7</ele>
        <time>2025-07-10T08:53:21.728Z</time>
      </trkpt>
      <trkpt lat="44.28811" lon="0.48798">
        <ele>167.4</ele>
        <time>2025-07-10T08:53:29.728Z</time>
      </trkpt>
      <trkpt lat="44.2882" lon="0.48804">
        <ele>168</ele>
        <time>2025-07-10T08:53:41.728Z</time>
      </trkpt>
      <trkpt lat="44.28834" lon="0.48813">
        <ele>169.3</ele>
        <time>2025-07-10T08:53:57.728Z</time>
      </trkpt>
      <trkpt lat="44.28847" lon="0.48793">
        <ele>170.2</ele>
        <time>2025-07-10T08:54:29.728Z</time>
      </trkpt>
      <trkpt lat="44.28862" lon="0.48778">
        <ele>171.1</ele>
        <time>2025-07-10T08:54:53.728Z</time>
      </trkpt>
      <trkpt lat="44.28889" lon="0.48775">
        <ele>172.9</ele>
        <time>2025-07-10T08:55:17.728Z</time>
      </trkpt>
      <trkpt lat="44.28918" lon="0.48764">
        <ele>174</ele>
        <time>2025-07-10T08:55:49.728Z</time>
      </trkpt>
      <trkpt lat="44.28928" lon="0.48749">
        <ele>174.4</ele>
        <time>2025-07-10T08:56:05.728Z</time>
      </trkpt>
      <trkpt lat="44.28939" lon="0.48719">
        <ele>175.7</ele>
        <time>2025-07-10T08:56:37.728Z</time>
      </trkpt>
      <trkpt lat="44.28946" lon="0.48692">
        <ele>177</ele>
        <time>2025-07-10T08:57:09.728Z</time>
      </trkpt>
      <trkpt lat="44.28951" lon="0.48675">
        <ele>177.2</ele>
        <time>2025-07-10T08:57:33.728Z</time>
      </trkpt>
      <trkpt lat="44.28958" lon="0.48654">
        <ele>178.2</ele>
        <time>2025-07-10T08:57:49.728Z</time>
      </trkpt>
      <trkpt lat="44.28979" lon="0.48528">
        <ele>181.5</ele>
        <time>2025-07-10T08:59:23.728Z</time>
      </trkpt>
      <trkpt lat="44.28985" lon="0.48518">
        <ele>181.8</ele>
        <time>2025-07-10T08:59:35.728Z</time>
      </trkpt>
      <trkpt lat="44.28993" lon="0.48516">
        <ele>181.4</ele>
      </trkpt>
      <trkpt lat="44.29006" lon="0.48541">
        <ele>178.5</ele>
        <time>2025-07-10T08:59:59.728Z</time>
      </trkpt>
      <trkpt lat="44.29025" lon="0.48595">
        <ele>174.3</ele>
        <time>2025-07-10T09:00:39.728Z</time>
      </trkpt>
      <trkpt lat="44.29047" lon="0.4866">
        <ele>169.7</ele>
        <time>2025-07-10T09:03:39.728Z</time>
      </trkpt>
      <trkpt lat="44.29041" lon="0.48673">
        <ele>170.7</ele>
        <time>2025-07-10T09:03:51.728Z</time>
      </trkpt>
      <trkpt lat="44.29038" lon="0.48695">
        <ele>171.6</ele>
        <time>2025-07-10T09:04:03.728Z</time>
      </trkpt>
      <trkpt lat="44.29041" lon="0.48722">
        <ele>171.1</ele>
        <time>2025-07-10T09:04:19.728Z</time>
      </trkpt>
      <trkpt lat="44.29047" lon="0.4873">
        <ele>170.6</ele>
        <time>2025-07-10T09:04:27.728Z</time>
      </trkpt>
      <trkpt lat="44.29048" lon="0.48738">
        <ele>170.5</ele>
        <time>2025-07-10T09:04:31.728Z</time>
      </trkpt>
      <trkpt lat="44.29048" lon="0.48761">
        <ele>170.1</ele>
        <time>2025-07-10T09:04:43.728Z</time>
      </trkpt>
      <trkpt lat="44.29049" lon="0.48817">
        <ele>169</ele>
        <time>2025-07-10T09:05:27.728Z</time>
      </trkpt>
      <trkpt lat="44.29048" lon="0.48869">
        <ele>168.3</ele>
        <time>2025-07-10T09:05:59.728Z</time>
      </trkpt>
      <trkpt lat="44.29046" lon="0.48889">
        <ele>168.3</ele>
        <time>2025-07-10T09:06:15.728Z</time>
      </trkpt>
      <trkpt lat="44.29045" lon="0.48914">
        <ele>168.4</ele>
        <time>2025-07-10T09:06:31.728Z</time>
      </trkpt>
      <trkpt lat="44.29043" lon="0.48941">
        <ele>168</ele>
        <time>2025-07-10T09:06:47.728Z</time>
      </trkpt>
      <trkpt lat="44.29043" lon="0.48974">
        <ele>166.9</ele>
        <time>2025-07-10T09:07:07.728Z</time>
      </trkpt>
      <trkpt lat="44.29044" lon="0.49012">
        <ele>164.8</ele>
        <time>2025-07-10T09:07:31.728Z</time>
      </trkpt>
      <trkpt lat="44.29049" lon="0.49057">
        <ele>160.6</ele>
        <time>2025-07-10T09:08:03.728Z</time>
      </trkpt>
      <trkpt lat="44.29052" lon="0.49107">
        <ele>156.5</ele>
        <time>2025-07-10T09:08:35.728Z</time>
      </trkpt>
      <trkpt lat="44.29065" lon="0.49119">
        <ele>155</ele>
        <time>2025-07-10T09:08:51.728Z</time>
      </trkpt>
      <trkpt lat="44.2907" lon="0.49128">
        <ele>154.1</ele>
        <time>2025-07-10T09:08:59.728Z</time>
      </trkpt>
      <trkpt lat="44.29077" lon="0.4913">
        <ele>153.3</ele>
        <time>2025-07-10T09:09:07.728Z</time>
      </trkpt>
      <trkpt lat="44.29128" lon="0.49115">
        <ele>149</ele>
        <time>2025-07-10T09:09:55.728Z</time>
      </trkpt>
      <trkpt lat="44.29145" lon="0.49103">
        <ele>147.2</ele>
        <time>2025-07-10T09:10:11.728Z</time>
      </trkpt>
      <trkpt lat="44.29165" lon="0.49063">
        <ele>145</ele>
        <time>2025-07-10T09:10:43.728Z</time>
      </trkpt>
      <trkpt lat="44.29171" lon="0.49043">
        <ele>143.9</ele>
        <time>2025-07-10T09:10:59.728Z</time>
      </trkpt>
      <trkpt lat="44.29176" lon="0.49034">
        <ele>143.1</ele>
        <time>2025-07-10T09:11:07.728Z</time>
      </trkpt>
      <trkpt lat="44.29179" lon="0.49036">
        <ele>142.7</ele>
        <time>2025-07-10T09:11:11.728Z</time>
      </trkpt>
      <trkpt lat="44.29181" lon="0.49069">
        <ele>142</ele>
        <time>2025-07-10T09:11:35.728Z</time>
      </trkpt>
      <trkpt lat="44.29178" lon="0.49112">
        <ele>140.3</ele>
        <time>2025-07-10T09:11:59.728Z</time>
      </trkpt>
      <trkpt lat="44.29169" lon="0.4917">
        <ele>137.8</ele>
        <time>2025-07-10T09:12:31.728Z</time>
      </trkpt>
      <trkpt lat="44.29162" lon="0.49197">
        <ele>137.2</ele>
        <time>2025-07-10T09:12:47.728Z</time>
      </trkpt>
      <trkpt lat="44.29143" lon="0.49251">
        <ele>135.2</ele>
        <time>2025-07-10T09:13:19.728Z</time>
      </trkpt>
      <trkpt lat="44.29106" lon="0.49336">
        <ele>131.7</ele>
        <time>2025-07-10T09:14:15.728Z</time>
      </trkpt>
      <trkpt lat="44.29086" lon="0.49387">
        <ele>131</ele>
        <time>2025-07-10T09:14:47.728Z</time>
      </trkpt>
      <trkpt lat="44.29067" lon="0.49447">
        <ele>128.2</ele>
        <time>2025-07-10T09:15:35.728Z</time>
      </trkpt>
      <trkpt lat="44.29066" lon="0.49458">
        <ele>128.2</ele>
        <time>2025-07-10T09:15:43.728Z</time>
      </trkpt>
      <trkpt lat="44.29055" lon="0.49486">
        <ele>126.9</ele>
        <time>2025-07-10T09:15:59.728Z</time>
      </trkpt>
      <trkpt lat="44.29024" lon="0.49511">
        <ele>123</ele>
        <time>2025-07-10T09:16:23.728Z</time>
      </trkpt>
      <trkpt lat="44.28995" lon="0.49546">
        <ele>121.5</ele>
        <time>2025-07-10T09:16:55.728Z</time>
      </trkpt>
      <trkpt lat="44.28961" lon="0.49604">
        <ele>120.9</ele>
        <time>2025-07-10T09:17:43.728Z</time>
      </trkpt>
      <trkpt lat="44.28956" lon="0.49617">
        <ele>120.9</ele>
        <time>2025-07-10T09:17:47.728Z</time>
      </trkpt>
      <trkpt lat="44.28946" lon="0.49637">
        <ele>120.3</ele>
        <time>2025-07-10T09:18:03.728Z</time>
      </trkpt>
      <trkpt lat="44.28943" lon="0.49637">
        <ele>119.2</ele>
        <time>2025-07-10T09:18:07.728Z</time>
      </trkpt>
      <trkpt lat="44.28932" lon="0.49667">
        <ele>116.1</ele>
        <time>2025-07-10T09:18:31.728Z</time>
      </trkpt>
      <trkpt lat="44.28933" lon="0.4968">
        <ele>115.1</ele>
        <time>2025-07-10T09:18:39.728Z</time>
      </trkpt>
      <trkpt lat="44.28936" lon="0.49693">
        <ele>115</ele>
        <time>2025-07-10T09:18:47.728Z</time>
      </trkpt>
      <trkpt lat="44.28942" lon="0.49703">
        <ele>115.4</ele>
        <time>2025-07-10T09:18:55.728Z</time>
      </trkpt>
      <trkpt lat="44.28961" lon="0.49715">
        <ele>118.9</ele>
        <time>2025-07-10T09:19:11.728Z</time>
      </trkpt>
      <trkpt lat="44.28978" lon="0.4973">
        <ele>120.1</ele>
        <time>2025-07-10T09:19:27.728Z</time>
      </trkpt>
      <trkpt lat="44.28988" lon="0.49743">
        <ele>118.7</ele>
        <time>2025-07-10T09:19:39.728Z</time>
      </trkpt>
      <trkpt lat="44.29003" lon="0.49761">
        <ele>117.9</ele>
        <time>2025-07-10T09:19:55.728Z</time>
      </trkpt>
      <trkpt lat="44.2902" lon="0.49782">
        <ele>115.7</ele>
        <time>2025-07-10T09:20:11.728Z</time>
      </trkpt>
      <trkpt lat="44.29045" lon="0.4981">
        <ele>114.5</ele>
        <time>2025-07-10T09:20:35.728Z</time>
      </trkpt>
      <trkpt lat="44.2906" lon="0.49829">
        <ele>114.7</ele>
        <time>2025-07-10T09:20:51.728Z</time>
      </trkpt>
      <trkpt lat="44.29088" lon="0.4987">
        <ele>115</ele>
        <time>2025-07-10T09:21:23.728Z</time>
      </trkpt>
      <trkpt lat="44.29093" lon="0.49881">
        <ele>114.6</ele>
        <time>2025-07-10T09:21:31.728Z</time>
      </trkpt>
      <trkpt lat="44.29146" lon="0.4995">
        <ele>116.2</ele>
        <time>2025-07-10T09:22:27.728Z</time>
      </trkpt>
      <trkpt lat="44.29151" lon="0.49963">
        <ele>115.6</ele>
        <time>2025-07-10T09:22:35.728Z</time>
      </trkpt>
      <trkpt lat="44.29166" lon="0.49986">
        <ele>115.4</ele>
        <time>2025-07-10T09:22:51.728Z</time>
      </trkpt>
      <trkpt lat="44.29176" lon="0.50027">
        <ele>112.1</ele>
        <time>2025-07-10T09:23:15.728Z</time>
      </trkpt>
      <trkpt lat="44.29175" lon="0.50057">
        <ele>110.6</ele>
        <time>2025-07-10T09:23:31.728Z</time>
      </trkpt>
      <trkpt lat="44.29178" lon="0.50063">
        <ele>110.8</ele>
        <time>2025-07-10T09:23:35.728Z</time>
      </trkpt>
      <trkpt lat="44.29193" lon="0.50073">
        <ele>110.8</ele>
        <time>2025-07-10T09:23:59.728Z</time>
      </trkpt>
      <trkpt lat="44.29202" lon="0.50073">
        <ele>111.7</ele>
        <time>2025-07-10T09:24:07.728Z</time>
      </trkpt>
      <trkpt lat="44.29216" lon="0.5008">
        <ele>112.2</ele>
        <time>2025-07-10T09:24:19.728Z</time>
      </trkpt>
      <trkpt lat="44.29226" lon="0.50086">
        <ele>111.7</ele>
        <time>2025-07-10T09:24:27.728Z</time>
      </trkpt>
      <trkpt lat="44.29233" lon="0.5009">
        <ele>111.5</ele>
        <time>2025-07-10T09:24:35.728Z</time>
      </trkpt>
      <trkpt lat="44.29238" lon="0.50092">
        <ele>111.5</ele>
        <time>2025-07-10T09:24:39.728Z</time>
      </trkpt>
      <trkpt lat="44.29249" lon="0.50097">
        <ele>111.5</ele>
        <time>2025-07-10T09:24:51.728Z</time>
      </trkpt>
      <trkpt lat="44.29257" lon="0.501">
        <ele>111.2</ele>
        <time>2025-07-10T09:24:59.728Z</time>
      </trkpt>
      <trkpt lat="44.29263" lon="0.50106">
        <ele>110.9</ele>
        <time>2025-07-10T09:25:03.728Z</time>
      </trkpt>
      <trkpt lat="44.29273" lon="0.50115">
        <ele>110.8</ele>
        <time>2025-07-10T09:25:11.728Z</time>
      </trkpt>
      <trkpt lat="44.29289" lon="0.50131">
        <ele>112.4</ele>
        <time>2025-07-10T09:25:43.728Z</time>
      </trkpt>
      <trkpt lat="44.2931" lon="0.50162">
        <ele>117</ele>
        <time>2025-07-10T09:26:15.728Z</time>
      </trkpt>
      <trkpt lat="44.29315" lon="0.5018">
        <ele>118.8</ele>
        <time>2025-07-10T09:26:23.728Z</time>
      </trkpt>
      <trkpt lat="44.29316" lon="0.50203">
        <ele>119.4</ele>
        <time>2025-07-10T09:26:57.728Z</time>
      </trkpt>
      <trkpt lat="44.29308" lon="0.50236">
        <ele>118.2</ele>
        <time>2025-07-10T09:27:29.728Z</time>
      </trkpt>
      <trkpt lat="44.29295" lon="0.5027">
        <ele>117.4</ele>
        <time>2025-07-10T09:27:53.728Z</time>
      </trkpt>
      <trkpt lat="44.29279" lon="0.50289">
        <ele>117.8</ele>
        <time>2025-07-10T09:28:09.728Z</time>
      </trkpt>
      <trkpt lat="44.29271" lon="0.50307">
        <ele>120.8</ele>
        <time>2025-07-10T09:28:25.728Z</time>
      </trkpt>
      <trkpt lat="44.29266" lon="0.50313">
        <ele>122.7</ele>
        <time>2025-07-10T09:29:17.728Z</time>
      </trkpt>
      <trkpt lat="44.29257" lon="0.50329">
        <ele>126.5</ele>
        <time>2025-07-10T09:29:37.728Z</time>
      </trkpt>
      <trkpt lat="44.29242" lon="0.5032">
        <ele>129.5</ele>
        <time>2025-07-10T09:30:09.728Z</time>
      </trkpt>
      <trkpt lat="44.29219" lon="0.50286">
        <ele>130.7</ele>
        <time>2025-07-10T09:32:05.728Z</time>
      </trkpt>
      <trkpt lat="44.29197" lon="0.50274">
        <ele>133.8</ele>
        <time>2025-07-10T09:33:11.728Z</time>
      </trkpt>
      <trkpt lat="44.29181" lon="0.50286">
        <ele>135.6</ele>
        <time>2025-07-10T09:33:27.728Z</time>
      </trkpt>
      <trkpt lat="44.29169" lon="0.50301">
        <ele>136.7</ele>
        <time>2025-07-10T09:33:43.728Z</time>
      </trkpt>
      <trkpt lat="44.29168" lon="0.50315">
        <ele>137.3</ele>
        <time>2025-07-10T09:33:51.728Z</time>
      </trkpt>
      <trkpt lat="44.29152" lon="0.50356">
        <ele>138.9</ele>
        <time>2025-07-10T09:34:23.728Z</time>
      </trkpt>
      <trkpt lat="44.29116" lon="0.50409">
        <ele>141.7</ele>
        <time>2025-07-10T09:35:11.728Z</time>
      </trkpt>
      <trkpt lat="44.29105" lon="0.5045">
        <ele>144.8</ele>
        <time>2025-07-10T09:35:43.728Z</time>
      </trkpt>
      <trkpt lat="44.29112" lon="0.50464">
        <ele>146</ele>
        <time>2025-07-10T09:35:55.728Z</time>
      </trkpt>
      <trkpt lat="44.29183" lon="0.50521">
        <ele>148.4</ele>
        <time>2025-07-10T09:37:07.728Z</time>
      </trkpt>
      <trkpt lat="44.29187" lon="0.50528">
        <ele>148.9</ele>
        <time>2025-07-10T09:37:11.728Z</time>
      </trkpt>
      <trkpt lat="44.2918" lon="0.5055">
        <ele>151.1</ele>
        <time>2025-07-10T09:37:43.728Z</time>
      </trkpt>
      <trkpt lat="44.29153" lon="0.50614">
        <ele>157.7</ele>
        <time>2025-07-10T09:38:55.728Z</time>
      </trkpt>
      <trkpt lat="44.29136" lon="0.50606">
        <ele>158.5</ele>
        <time>2025-07-10T09:39:19.728Z</time>
      </trkpt>
      <trkpt lat="44.29093" lon="0.50604">
        <ele>158.1</ele>
        <time>2025-07-10T09:39:59.728Z</time>
      </trkpt>
      <trkpt lat="44.29086" lon="0.50604">
        <ele>157.9</ele>
        <time>2025-07-10T09:40:07.728Z</time>
      </trkpt>
      <trkpt lat="44.29065" lon="0.50617">
        <ele>158.3</ele>
        <time>2025-07-10T09:40:31.728Z</time>
      </trkpt>
      <trkpt lat="44.29054" lon="0.50617">
        <ele>157.6</ele>
        <time>2025-07-10T09:40:39.728Z</time>
      </trkpt>
      <trkpt lat="44.29047" lon="0.50614">
        <ele>156.9</ele>
        <time>2025-07-10T09:40:47.728Z</time>
      </trkpt>
      <trkpt lat="44.2904" lon="0.50615">
        <ele>156.8</ele>
        <time>2025-07-10T09:40:55.728Z</time>
      </trkpt>
      <trkpt lat="44.29027" lon="0.50623">
        <ele>156.8</ele>
        <time>2025-07-10T09:41:11.728Z</time>
      </trkpt>
      <trkpt lat="44.29017" lon="0.50625">
        <ele>156.8</ele>
        <time>2025-07-10T09:41:19.728Z</time>
      </trkpt>
      <trkpt lat="44.28983" lon="0.50654">
        <ele>159</ele>
        <time>2025-07-10T09:41:51.728Z</time>
      </trkpt>
      <trkpt lat="44.28961" lon="0.50671">
        <ele>161.5</ele>
        <time>2025-07-10T09:42:11.728Z</time>
      </trkpt>
      <trkpt lat="44.28863" lon="0.50746">
        <ele>167</ele>
        <time>2025-07-10T09:43:47.728Z</time>
      </trkpt>
      <trkpt lat="44.28847" lon="0.50762">
        <ele>168.2</ele>
        <time>2025-07-10T09:44:03.728Z</time>
      </trkpt>
      <trkpt lat="44.28832" lon="0.50771">
        <ele>169</ele>
        <time>2025-07-10T09:44:15.728Z</time>
      </trkpt>
      <trkpt lat="44.28848" lon="0.50817">
        <ele>168.9</ele>
        <time>2025-07-10T09:44:43.728Z</time>
      </trkpt>
      <trkpt lat="44.28842" lon="0.50821">
        <ele>169.2</ele>
        <time>2025-07-10T09:44:47.728Z</time>
      </trkpt>
      <trkpt lat="44.28836" lon="0.50821">
        <ele>169.5</ele>
        <time>2025-07-10T09:44:51.728Z</time>
      </trkpt>
      <trkpt lat="44.28827" lon="0.50828">
        <ele>170.1</ele>
        <time>2025-07-10T09:44:59.728Z</time>
      </trkpt>
      <trkpt lat="44.28815" lon="0.50845">
        <ele>171.1</ele>
        <time>2025-07-10T09:45:15.728Z</time>
      </trkpt>
      <trkpt lat="44.2882" lon="0.50871">
        <ele>171.6</ele>
        <time>2025-07-10T09:45:39.728Z</time>
      </trkpt>
      <trkpt lat="44.28818" lon="0.50879">
        <ele>171.9</ele>
        <time>2025-07-10T09:45:47.728Z</time>
      </trkpt>
      <trkpt lat="44.2882" lon="0.50887">
        <ele>171.9</ele>
        <time>2025-07-10T09:45:55.728Z</time>
      </trkpt>
      <trkpt lat="44.28819" lon="0.50884">
        <ele>172</ele>
        <time>2025-07-10T09:45:57.728Z</time>
      </trkpt>
      <trkpt lat="44.2882" lon="0.50889">
        <ele>172</ele>
        <time>2025-07-10T09:46:19.728Z</time>
      </trkpt>
      <trkpt lat="44.28819" lon="0.50893">
        <ele>172.1</ele>
        <time>2025-07-10T09:46:23.728Z</time>
      </trkpt>
      <trkpt lat="44.28812" lon="0.50897">
        <ele>172.5</ele>
        <time>2025-07-10T09:46:25.728Z</time>
      </trkpt>
      <trkpt lat="44.2881" lon="0.50901">
        <ele>172.7</ele>
        <time>2025-07-10T09:46:27.728Z</time>
      </trkpt>
      <trkpt lat="44.28812" lon="0.5091">
        <ele>172.5</ele>
        <time>2025-07-10T09:47:17.728Z</time>
      </trkpt>
      <trkpt lat="44.28811" lon="0.50914">
        <ele>172.6</ele>
        <time>2025-07-10T09:47:33.728Z</time>
      </trkpt>
      <trkpt lat="44.28805" lon="0.50917">
        <ele>173</ele>
        <time>2025-07-10T09:47:43.728Z</time>
      </trkpt>
      <trkpt lat="44.28783" lon="0.50942">
        <ele>172.1</ele>
        <time>2025-07-10T09:48:15.728Z</time>
      </trkpt>
      <trkpt lat="44.28786" lon="0.5096">
        <ele>171</ele>
        <time>2025-07-10T09:48:23.728Z</time>
      </trkpt>
      <trkpt lat="44.28836" lon="0.51047">
        <ele>170.1</ele>
        <time>2025-07-10T09:49:27.728Z</time>
      </trkpt>
      <trkpt lat="44.28836" lon="0.51057">
        <ele>170</ele>
        <time>2025-07-10T09:49:35.728Z</time>
      </trkpt>
      <trkpt lat="44.28839" lon="0.51064">
        <ele>170</ele>
        <time>2025-07-10T09:49:43.728Z</time>
      </trkpt>
      <trkpt lat="44.28842" lon="0.51066">
        <ele>170.1</ele>
        <time>2025-07-10T09:49:51.728Z</time>
      </trkpt>
      <trkpt lat="44.28848" lon="0.51073">
        <ele>170.2</ele>
        <time>2025-07-10T09:50:00.728Z</time>
      </trkpt>
    </trkseg>
  </trk>
</gpx>